sensor_id;sensor_type;location;lat;lon;timestamp;P1;durP1;ratioP1;P2;durP2;ratioP2
9657;SDS011;4867;48.112;11.622;2022-12-17T00:00:46;25.20;;;20.70;;
9657;SDS011;4867;48.112;11.622;2022-12-17T00:03:32;27.47;;;22.03;;
9657;SDS011;4867;48.112;11.622;2022-12-17T00:06:22;27.73;;;21.00;;
9657;SDS011;4867;48.112;11.622;2022-12-17T00:09:08;27.37;;;20.00;;
9657;SDS011;4867;48.112;11.622;2022-12-17T00:11:54;25.70;;;20.60;;
9657;SDS011;4867;48.112;11.622;2022-12-17T00:14:40;27.30;;;21.20;;
9657;SDS011;4867;48.112;11.622;2022-12-17T00:17:26;25.70;;;20.10;;
9657;SDS011;4867;48.112;11.622;2022-12-17T00:20:11;24.93;;;18.77;;
9657;SDS011;4867;48.112;11.622;2022-12-17T00:23:01;24.17;;;20.03;;
9657;SDS011;4867;48.112;11.622;2022-12-17T00:25:49;26.73;;;21.17;;
9657;SDS011;4867;48.112;11.622;2022-12-17T00:28:38;23.37;;;20.27;;
9657;SDS011;4867;48.112;11.622;2022-12-17T00:31:25;25.50;;;20.33;;
9657;SDS011;4867;48.112;11.622;2022-12-17T00:34:12;30.43;;;24.63;;
9657;SDS011;4867;48.112;11.622;2022-12-17T00:36:58;27.17;;;20.40;;
9657;SDS011;4867;48.112;11.622;2022-12-17T00:39:44;23.83;;;19.57;;
9657;SDS011;4867;48.112;11.622;2022-12-17T00:42:30;23.90;;;19.97;;
9657;SDS011;4867;48.112;11.622;2022-12-17T00:45:17;26.57;;;20.97;;
9657;SDS011;4867;48.112;11.622;2022-12-17T00:48:03;26.57;;;21.73;;
9657;SDS011;4867;48.112;11.622;2022-12-17T00:50:49;25.00;;;21.47;;
9657;SDS011;4867;48.112;11.622;2022-12-17T00:53:35;27.87;;;22.03;;
9657;SDS011;4867;48.112;11.622;2022-12-17T00:56:21;25.43;;;20.50;;
9657;SDS011;4867;48.112;11.622;2022-12-17T00:59:07;24.20;;;20.53;;
9657;SDS011;4867;48.112;11.622;2022-12-17T01:01:53;26.70;;;20.73;;
9657;SDS011;4867;48.112;11.622;2022-12-17T01:04:39;22.33;;;18.80;;
9657;SDS011;4867;48.112;11.622;2022-12-17T01:07:25;24.07;;;19.90;;
9657;SDS011;4867;48.112;11.622;2022-12-17T01:10:10;25.07;;;19.93;;
9657;SDS011;4867;48.112;11.622;2022-12-17T01:12:56;26.47;;;21.40;;
9657;SDS011;4867;48.112;11.622;2022-12-17T01:15:42;24.67;;;19.60;;
9657;SDS011;4867;48.112;11.622;2022-12-17T01:18:30;24.33;;;19.60;;
9657;SDS011;4867;48.112;11.622;2022-12-17T01:21:17;23.40;;;19.23;;
9657;SDS011;4867;48.112;11.622;2022-12-17T01:24:02;25.47;;;20.93;;
9657;SDS011;4867;48.112;11.622;2022-12-17T01:26:49;25.60;;;20.90;;
9657;SDS011;4867;48.112;11.622;2022-12-17T01:29:35;26.67;;;20.67;;
9657;SDS011;4867;48.112;11.622;2022-12-17T01:32:21;21.33;;;19.00;;
9657;SDS011;4867;48.112;11.622;2022-12-17T01:35:07;23.70;;;19.53;;
9657;SDS011;4867;48.112;11.622;2022-12-17T01:37:53;24.70;;;19.93;;
9657;SDS011;4867;48.112;11.622;2022-12-17T01:40:38;24.27;;;20.57;;
9657;SDS011;4867;48.112;11.622;2022-12-17T01:43:34;24.43;;;20.63;;
9657;SDS011;4867;48.112;11.622;2022-12-17T01:46:22;23.77;;;19.97;;
9657;SDS011;4867;48.112;11.622;2022-12-17T01:49:10;25.93;;;21.53;;
9657;SDS011;4867;48.112;11.622;2022-12-17T01:51:57;27.80;;;21.73;;
9657;SDS011;4867;48.112;11.622;2022-12-17T01:54:45;25.87;;;21.30;;
9657;SDS011;4867;48.112;11.622;2022-12-17T01:57:32;24.97;;;20.43;;
9657;SDS011;4867;48.112;11.622;2022-12-17T02:00:19;29.70;;;21.53;;
9657;SDS011;4867;48.112;11.622;2022-12-17T02:03:12;24.00;;;19.30;;
9657;SDS011;4867;48.112;11.622;2022-12-17T02:11:59;25.50;;;21.63;;
9657;SDS011;4867;48.112;11.622;2022-12-17T02:15:12;26.30;;;21.33;;
9657;SDS011;4867;48.112;11.622;2022-12-17T02:18:06;25.37;;;20.70;;
9657;SDS011;4867;48.112;11.622;2022-12-17T02:20:57;24.53;;;20.37;;
9657;SDS011;4867;48.112;11.622;2022-12-17T02:27:16;25.20;;;20.93;;
9657;SDS011;4867;48.112;11.622;2022-12-17T02:30:04;23.60;;;20.00;;
9657;SDS011;4867;48.112;11.622;2022-12-17T02:32:52;26.73;;;20.70;;
9657;SDS011;4867;48.112;11.622;2022-12-17T02:36:03;23.50;;;19.63;;
9657;SDS011;4867;48.112;11.622;2022-12-17T02:38:49;26.17;;;20.50;;
9657;SDS011;4867;48.112;11.622;2022-12-17T02:44:27;25.57;;;21.60;;
9657;SDS011;4867;48.112;11.622;2022-12-17T02:47:14;25.23;;;21.00;;
9657;SDS011;4867;48.112;11.622;2022-12-17T02:50:02;25.73;;;20.10;;
9657;SDS011;4867;48.112;11.622;2022-12-17T02:52:48;27.63;;;21.70;;
9657;SDS011;4867;48.112;11.622;2022-12-17T02:55:35;24.87;;;20.87;;
9657;SDS011;4867;48.112;11.622;2022-12-17T02:58:21;24.53;;;21.43;;
9657;SDS011;4867;48.112;11.622;2022-12-17T03:01:07;25.97;;;20.97;;
9657;SDS011;4867;48.112;11.622;2022-12-17T03:03:53;24.30;;;21.33;;
9657;SDS011;4867;48.112;11.622;2022-12-17T03:06:40;24.33;;;21.20;;
9657;SDS011;4867;48.112;11.622;2022-12-17T03:09:41;26.43;;;21.93;;
9657;SDS011;4867;48.112;11.622;2022-12-17T03:12:30;27.33;;;22.10;;
9657;SDS011;4867;48.112;11.622;2022-12-17T03:15:15;26.23;;;20.77;;
9657;SDS011;4867;48.112;11.622;2022-12-17T03:18:01;27.13;;;21.73;;
9657;SDS011;4867;48.112;11.622;2022-12-17T03:20:51;25.97;;;21.80;;
9657;SDS011;4867;48.112;11.622;2022-12-17T03:23:40;24.37;;;20.33;;
9657;SDS011;4867;48.112;11.622;2022-12-17T03:26:25;27.80;;;22.90;;
9657;SDS011;4867;48.112;11.622;2022-12-17T03:29:12;25.70;;;21.97;;
9657;SDS011;4867;48.112;11.622;2022-12-17T03:32:00;25.90;;;21.97;;
9657;SDS011;4867;48.112;11.622;2022-12-17T03:34:46;26.83;;;22.00;;
9657;SDS011;4867;48.112;11.622;2022-12-17T03:37:32;27.67;;;22.73;;
9657;SDS011;4867;48.112;11.622;2022-12-17T03:40:18;27.00;;;21.60;;
9657;SDS011;4867;48.112;11.622;2022-12-17T03:43:04;25.17;;;21.13;;
9657;SDS011;4867;48.112;11.622;2022-12-17T03:45:54;25.40;;;21.50;;
9657;SDS011;4867;48.112;11.622;2022-12-17T03:48:42;24.67;;;21.23;;
9657;SDS011;4867;48.112;11.622;2022-12-17T03:51:27;25.33;;;21.73;;
9657;SDS011;4867;48.112;11.622;2022-12-17T03:54:13;26.60;;;21.87;;
9657;SDS011;4867;48.112;11.622;2022-12-17T03:56:59;26.33;;;22.07;;
9657;SDS011;4867;48.112;11.622;2022-12-17T03:59:45;28.50;;;23.03;;
9657;SDS011;4867;48.112;11.622;2022-12-17T04:02:37;26.70;;;23.33;;
9657;SDS011;4867;48.112;11.622;2022-12-17T04:05:24;26.23;;;22.43;;
9657;SDS011;4867;48.112;11.622;2022-12-17T04:08:10;25.83;;;22.90;;
9657;SDS011;4867;48.112;11.622;2022-12-17T04:10:56;27.93;;;23.17;;
9657;SDS011;4867;48.112;11.622;2022-12-17T04:13:42;28.43;;;24.27;;
9657;SDS011;4867;48.112;11.622;2022-12-17T04:16:28;27.73;;;24.03;;
9657;SDS011;4867;48.112;11.622;2022-12-17T04:19:14;27.90;;;24.07;;
9657;SDS011;4867;48.112;11.622;2022-12-17T04:22:00;29.40;;;24.27;;
9657;SDS011;4867;48.112;11.622;2022-12-17T04:24:49;28.50;;;23.97;;
9657;SDS011;4867;48.112;11.622;2022-12-17T04:27:35;28.97;;;24.73;;
9657;SDS011;4867;48.112;11.622;2022-12-17T04:30:21;27.57;;;23.90;;
9657;SDS011;4867;48.112;11.622;2022-12-17T04:33:07;28.33;;;23.77;;
9657;SDS011;4867;48.112;11.622;2022-12-17T04:35:53;29.23;;;24.00;;
9657;SDS011;4867;48.112;11.622;2022-12-17T04:38:39;27.70;;;24.07;;
9657;SDS011;4867;48.112;11.622;2022-12-17T04:41:25;28.17;;;23.93;;
9657;SDS011;4867;48.112;11.622;2022-12-17T04:44:11;29.30;;;24.70;;
9657;SDS011;4867;48.112;11.622;2022-12-17T04:46:57;28.30;;;24.83;;
9657;SDS011;4867;48.112;11.622;2022-12-17T04:49:43;28.90;;;24.67;;
9657;SDS011;4867;48.112;11.622;2022-12-17T04:52:29;30.03;;;23.80;;
9657;SDS011;4867;48.112;11.622;2022-12-17T04:55:15;28.37;;;22.97;;
9657;SDS011;4867;48.112;11.622;2022-12-17T04:58:01;27.87;;;22.97;;
9657;SDS011;4867;48.112;11.622;2022-12-17T05:00:51;26.80;;;21.93;;
9657;SDS011;4867;48.112;11.622;2022-12-17T05:03:38;26.27;;;23.10;;
9657;SDS011;4867;48.112;11.622;2022-12-17T05:06:27;27.30;;;23.50;;
9657;SDS011;4867;48.112;11.622;2022-12-17T05:09:13;27.37;;;22.47;;
9657;SDS011;4867;48.112;11.622;2022-12-17T05:11:59;28.93;;;24.33;;
9657;SDS011;4867;48.112;11.622;2022-12-17T05:14:45;29.63;;;24.40;;
9657;SDS011;4867;48.112;11.622;2022-12-17T05:17:30;28.67;;;23.77;;
9657;SDS011;4867;48.112;11.622;2022-12-17T05:20:16;27.30;;;23.53;;
9657;SDS011;4867;48.112;11.622;2022-12-17T05:23:03;28.43;;;23.80;;
9657;SDS011;4867;48.112;11.622;2022-12-17T05:25:54;27.83;;;24.87;;
9657;SDS011;4867;48.112;11.622;2022-12-17T05:29:03;27.43;;;22.43;;
9657;SDS011;4867;48.112;11.622;2022-12-17T05:31:49;28.03;;;23.53;;
9657;SDS011;4867;48.112;11.622;2022-12-17T05:34:35;29.60;;;24.13;;
9657;SDS011;4867;48.112;11.622;2022-12-17T05:37:22;27.90;;;23.70;;
9657;SDS011;4867;48.112;11.622;2022-12-17T05:40:08;29.50;;;24.63;;
9657;SDS011;4867;48.112;11.622;2022-12-17T05:42:58;29.03;;;24.97;;
9657;SDS011;4867;48.112;11.622;2022-12-17T05:45:49;29.63;;;26.37;;
9657;SDS011;4867;48.112;11.622;2022-12-17T05:48:35;27.60;;;24.60;;
9657;SDS011;4867;48.112;11.622;2022-12-17T05:51:21;30.77;;;27.43;;
9657;SDS011;4867;48.112;11.622;2022-12-17T05:54:07;29.97;;;25.50;;
9657;SDS011;4867;48.112;11.622;2022-12-17T05:56:53;29.73;;;26.47;;
9657;SDS011;4867;48.112;11.622;2022-12-17T05:59:39;29.90;;;25.60;;
9657;SDS011;4867;48.112;11.622;2022-12-17T06:02:25;40.20;;;30.03;;
9657;SDS011;4867;48.112;11.622;2022-12-17T06:05:11;31.70;;;24.87;;
9657;SDS011;4867;48.112;11.622;2022-12-17T06:08:02;31.80;;;26.57;;
9657;SDS011;4867;48.112;11.622;2022-12-17T06:10:50;30.43;;;26.27;;
9657;SDS011;4867;48.112;11.622;2022-12-17T06:13:35;30.50;;;25.00;;
9657;SDS011;4867;48.112;11.622;2022-12-17T06:16:21;30.57;;;26.27;;
9657;SDS011;4867;48.112;11.622;2022-12-17T06:19:07;29.83;;;24.77;;
9657;SDS011;4867;48.112;11.622;2022-12-17T06:21:53;27.57;;;24.57;;
9657;SDS011;4867;48.112;11.622;2022-12-17T06:24:39;31.70;;;25.53;;
9657;SDS011;4867;48.112;11.622;2022-12-17T06:27:25;32.10;;;25.23;;
9657;SDS011;4867;48.112;11.622;2022-12-17T06:30:11;30.83;;;25.67;;
9657;SDS011;4867;48.112;11.622;2022-12-17T06:33:06;30.13;;;25.37;;
9657;SDS011;4867;48.112;11.622;2022-12-17T06:35:54;31.13;;;24.83;;
9657;SDS011;4867;48.112;11.622;2022-12-17T06:38:48;29.13;;;25.77;;
9657;SDS011;4867;48.112;11.622;2022-12-17T06:41:34;29.47;;;26.07;;
9657;SDS011;4867;48.112;11.622;2022-12-17T06:44:29;31.10;;;25.63;;
9657;SDS011;4867;48.112;11.622;2022-12-17T06:47:15;32.80;;;26.40;;
9657;SDS011;4867;48.112;11.622;2022-12-17T06:50:01;36.93;;;28.43;;
9657;SDS011;4867;48.112;11.622;2022-12-17T06:52:56;62.67;;;40.13;;
9657;SDS011;4867;48.112;11.622;2022-12-17T06:55:43;36.40;;;30.10;;
9657;SDS011;4867;48.112;11.622;2022-12-17T06:58:29;31.27;;;25.97;;
9657;SDS011;4867;48.112;11.622;2022-12-17T07:01:15;31.40;;;26.17;;
9657;SDS011;4867;48.112;11.622;2022-12-17T07:04:01;34.57;;;26.57;;
9657;SDS011;4867;48.112;11.622;2022-12-17T07:06:48;31.80;;;27.13;;
9657;SDS011;4867;48.112;11.622;2022-12-17T07:09:34;30.23;;;26.57;;
9657;SDS011;4867;48.112;11.622;2022-12-17T07:12:20;32.00;;;26.50;;
9657;SDS011;4867;48.112;11.622;2022-12-17T07:15:06;32.07;;;26.13;;
9657;SDS011;4867;48.112;11.622;2022-12-17T07:18:02;33.00;;;26.20;;
9657;SDS011;4867;48.112;11.622;2022-12-17T07:20:51;30.90;;;25.93;;
9657;SDS011;4867;48.112;11.622;2022-12-17T07:23:37;29.63;;;25.93;;
9657;SDS011;4867;48.112;11.622;2022-12-17T07:26:23;34.67;;;28.07;;
9657;SDS011;4867;48.112;11.622;2022-12-17T07:29:09;29.87;;;25.90;;
9657;SDS011;4867;48.112;11.622;2022-12-17T07:31:55;32.43;;;26.13;;
9657;SDS011;4867;48.112;11.622;2022-12-17T07:34:40;29.53;;;25.33;;
9657;SDS011;4867;48.112;11.622;2022-12-17T07:37:26;27.20;;;23.87;;
9657;SDS011;4867;48.112;11.622;2022-12-17T07:40:12;30.23;;;25.97;;
9657;SDS011;4867;48.112;11.622;2022-12-17T07:42:58;30.77;;;25.57;;
9657;SDS011;4867;48.112;11.622;2022-12-17T07:45:44;30.07;;;25.57;;
9657;SDS011;4867;48.112;11.622;2022-12-17T07:48:29;29.50;;;24.87;;
9657;SDS011;4867;48.112;11.622;2022-12-17T07:51:15;29.80;;;25.63;;
9657;SDS011;4867;48.112;11.622;2022-12-17T07:54:01;33.10;;;27.10;;
9657;SDS011;4867;48.112;11.622;2022-12-17T07:56:47;30.83;;;25.50;;
9657;SDS011;4867;48.112;11.622;2022-12-17T07:59:33;29.17;;;25.43;;
9657;SDS011;4867;48.112;11.622;2022-12-17T08:02:19;30.60;;;25.53;;
9657;SDS011;4867;48.112;11.622;2022-12-17T08:05:05;30.27;;;24.63;;
9657;SDS011;4867;48.112;11.622;2022-12-17T08:07:50;27.57;;;23.77;;
9657;SDS011;4867;48.112;11.622;2022-12-17T08:10:36;27.73;;;22.43;;
9657;SDS011;4867;48.112;11.622;2022-12-17T08:13:22;24.67;;;21.47;;
9657;SDS011;4867;48.112;11.622;2022-12-17T08:16:08;27.90;;;21.83;;
9657;SDS011;4867;48.112;11.622;2022-12-17T08:18:54;26.73;;;20.80;;
9657;SDS011;4867;48.112;11.622;2022-12-17T08:21:40;26.03;;;22.13;;
9657;SDS011;4867;48.112;11.622;2022-12-17T08:24:26;27.47;;;22.43;;
9657;SDS011;4867;48.112;11.622;2022-12-17T08:27:12;25.33;;;21.87;;
9657;SDS011;4867;48.112;11.622;2022-12-17T08:30:14;26.93;;;20.53;;
9657;SDS011;4867;48.112;11.622;2022-12-17T08:33:01;28.17;;;22.73;;
9657;SDS011;4867;48.112;11.622;2022-12-17T08:35:53;25.83;;;20.90;;
9657;SDS011;4867;48.112;11.622;2022-12-17T08:38:53;24.13;;;21.00;;
9657;SDS011;4867;48.112;11.622;2022-12-17T08:41:39;24.80;;;21.03;;
9657;SDS011;4867;48.112;11.622;2022-12-17T08:44:30;24.00;;;20.47;;
9657;SDS011;4867;48.112;11.622;2022-12-17T08:47:16;24.23;;;20.00;;
9657;SDS011;4867;48.112;11.622;2022-12-17T08:50:02;28.77;;;22.17;;
9657;SDS011;4867;48.112;11.622;2022-12-17T08:52:56;25.07;;;21.07;;
9657;SDS011;4867;48.112;11.622;2022-12-17T08:55:42;24.43;;;20.43;;
9657;SDS011;4867;48.112;11.622;2022-12-17T08:58:28;25.50;;;21.17;;
9657;SDS011;4867;48.112;11.622;2022-12-17T09:01:14;25.90;;;22.47;;
9657;SDS011;4867;48.112;11.622;2022-12-17T09:04:00;28.43;;;23.10;;
9657;SDS011;4867;48.112;11.622;2022-12-17T09:06:46;26.57;;;21.77;;
9657;SDS011;4867;48.112;11.622;2022-12-17T09:09:32;24.07;;;21.13;;
9657;SDS011;4867;48.112;11.622;2022-12-17T09:12:18;27.30;;;22.20;;
9657;SDS011;4867;48.112;11.622;2022-12-17T09:15:04;26.50;;;22.90;;
9657;SDS011;4867;48.112;11.622;2022-12-17T09:17:50;27.57;;;22.57;;
9657;SDS011;4867;48.112;11.622;2022-12-17T09:20:37;26.13;;;22.30;;
9657;SDS011;4867;48.112;11.622;2022-12-17T09:23:23;28.50;;;23.90;;
9657;SDS011;4867;48.112;11.622;2022-12-17T09:26:08;26.53;;;23.10;;
9657;SDS011;4867;48.112;11.622;2022-12-17T09:28:54;30.07;;;25.10;;
9657;SDS011;4867;48.112;11.622;2022-12-17T09:31:40;29.77;;;23.03;;
9657;SDS011;4867;48.112;11.622;2022-12-17T09:34:26;36.00;;;25.70;;
9657;SDS011;4867;48.112;11.622;2022-12-17T09:37:15;42.87;;;24.17;;
9657;SDS011;4867;48.112;11.622;2022-12-17T09:40:01;27.67;;;21.50;;
9657;SDS011;4867;48.112;11.622;2022-12-17T09:43:07;27.33;;;21.87;;
9657;SDS011;4867;48.112;11.622;2022-12-17T09:46:07;27.30;;;21.80;;
9657;SDS011;4867;48.112;11.622;2022-12-17T09:49:04;26.90;;;21.33;;
9657;SDS011;4867;48.112;11.622;2022-12-17T09:52:16;46.13;;;31.90;;
9657;SDS011;4867;48.112;11.622;2022-12-17T09:55:24;28.83;;;21.57;;
9657;SDS011;4867;48.112;11.622;2022-12-17T09:58:30;48.53;;;32.90;;
9657;SDS011;4867;48.112;11.622;2022-12-17T10:01:21;26.10;;;20.47;;
9657;SDS011;4867;48.112;11.622;2022-12-17T10:04:16;26.87;;;21.23;;
9657;SDS011;4867;48.112;11.622;2022-12-17T10:07:15;25.17;;;20.27;;
9657;SDS011;4867;48.112;11.622;2022-12-17T10:13:06;26.30;;;21.27;;
9657;SDS011;4867;48.112;11.622;2022-12-17T10:15:57;27.17;;;21.80;;
9657;SDS011;4867;48.112;11.622;2022-12-17T10:18:44;29.13;;;22.73;;
9657;SDS011;4867;48.112;11.622;2022-12-17T10:21:30;27.23;;;22.20;;
9657;SDS011;4867;48.112;11.622;2022-12-17T10:24:18;28.47;;;22.80;;
9657;SDS011;4867;48.112;11.622;2022-12-17T10:27:24;29.30;;;23.00;;
9657;SDS011;4867;48.112;11.622;2022-12-17T10:30:13;29.27;;;22.93;;
9657;SDS011;4867;48.112;11.622;2022-12-17T10:33:04;29.57;;;23.97;;
9657;SDS011;4867;48.112;11.622;2022-12-17T10:35:51;28.40;;;22.37;;
9657;SDS011;4867;48.112;11.622;2022-12-17T10:38:37;29.70;;;22.73;;
9657;SDS011;4867;48.112;11.622;2022-12-17T10:41:27;27.67;;;22.23;;
9657;SDS011;4867;48.112;11.622;2022-12-17T10:44:30;28.33;;;23.13;;
9657;SDS011;4867;48.112;11.622;2022-12-17T10:47:22;26.30;;;21.47;;
9657;SDS011;4867;48.112;11.622;2022-12-17T10:53:16;26.50;;;20.50;;
9657;SDS011;4867;48.112;11.622;2022-12-17T10:56:05;26.73;;;20.60;;
9657;SDS011;4867;48.112;11.622;2022-12-17T10:58:52;23.53;;;20.07;;
9657;SDS011;4867;48.112;11.622;2022-12-17T11:01:38;25.23;;;19.77;;
9657;SDS011;4867;48.112;11.622;2022-12-17T11:07:18;26.70;;;19.80;;
9657;SDS011;4867;48.112;11.622;2022-12-17T11:10:15;22.37;;;18.33;;
9657;SDS011;4867;48.112;11.622;2022-12-17T11:13:07;23.77;;;19.40;;
9657;SDS011;4867;48.112;11.622;2022-12-17T11:15:56;27.73;;;22.13;;
9657;SDS011;4867;48.112;11.622;2022-12-17T11:22:56;24.53;;;20.00;;
9657;SDS011;4867;48.112;11.622;2022-12-17T11:26:05;26.77;;;19.50;;
9657;SDS011;4867;48.112;11.622;2022-12-17T11:28:38;25.80;;;21.03;;
9657;SDS011;4867;48.112;11.622;2022-12-17T11:41:05;27.50;;;20.47;;
9657;SDS011;4867;48.112;11.622;2022-12-17T11:47:15;25.67;;;20.40;;
9657;SDS011;4867;48.112;11.622;2022-12-17T11:50:04;30.03;;;22.87;;
9657;SDS011;4867;48.112;11.622;2022-12-17T11:52:56;26.77;;;22.00;;
9657;SDS011;4867;48.112;11.622;2022-12-17T11:59:42;23.73;;;19.73;;
9657;SDS011;4867;48.112;11.622;2022-12-17T12:06:22;25.17;;;20.80;;
9657;SDS011;4867;48.112;11.622;2022-12-17T12:09:35;25.60;;;20.37;;
9657;SDS011;4867;48.112;11.622;2022-12-17T12:22:00;30.23;;;23.43;;
9657;SDS011;4867;48.112;11.622;2022-12-17T12:24:59;30.97;;;23.93;;
9657;SDS011;4867;48.112;11.622;2022-12-17T12:30:59;33.80;;;24.90;;
9657;SDS011;4867;48.112;11.622;2022-12-17T12:34:01;32.20;;;25.67;;
9657;SDS011;4867;48.112;11.622;2022-12-17T12:36:51;32.33;;;27.00;;
9657;SDS011;4867;48.112;11.622;2022-12-17T12:39:46;30.07;;;25.73;;
9657;SDS011;4867;48.112;11.622;2022-12-17T12:42:43;31.93;;;25.43;;
9657;SDS011;4867;48.112;11.622;2022-12-17T12:45:44;32.60;;;26.20;;
9657;SDS011;4867;48.112;11.622;2022-12-17T12:48:47;33.93;;;26.13;;
9657;SDS011;4867;48.112;11.622;2022-12-17T12:51:41;32.03;;;25.97;;
9657;SDS011;4867;48.112;11.622;2022-12-17T12:54:29;37.67;;;29.13;;
9657;SDS011;4867;48.112;11.622;2022-12-17T12:57:32;33.60;;;26.40;;
9657;SDS011;4867;48.112;11.622;2022-12-17T13:00:24;34.23;;;26.77;;
9657;SDS011;4867;48.112;11.622;2022-12-17T13:03:33;32.67;;;26.80;;
9657;SDS011;4867;48.112;11.622;2022-12-17T13:06:41;33.87;;;27.13;;
9657;SDS011;4867;48.112;11.622;2022-12-17T13:11:47;32.80;;;27.07;;
9657;SDS011;4867;48.112;11.622;2022-12-17T13:14:23;37.20;;;28.47;;
9657;SDS011;4867;48.112;11.622;2022-12-17T13:22:27;36.90;;;28.70;;
9657;SDS011;4867;48.112;11.622;2022-12-17T13:24:56;35.13;;;28.83;;
9657;SDS011;4867;48.112;11.622;2022-12-17T13:27:41;34.67;;;29.03;;
9657;SDS011;4867;48.112;11.622;2022-12-17T13:33:02;34.27;;;28.57;;
9657;SDS011;4867;48.112;11.622;2022-12-17T13:38:19;35.07;;;29.40;;
9657;SDS011;4867;48.112;11.622;2022-12-17T13:41:11;36.53;;;28.50;;
9657;SDS011;4867;48.112;11.622;2022-12-17T13:43:50;36.03;;;30.73;;
9657;SDS011;4867;48.112;11.622;2022-12-17T13:46:29;35.70;;;29.60;;
9657;SDS011;4867;48.112;11.622;2022-12-17T13:52:00;37.30;;;29.83;;
9657;SDS011;4867;48.112;11.622;2022-12-17T13:54:37;38.47;;;31.30;;
9657;SDS011;4867;48.112;11.622;2022-12-17T13:57:05;40.50;;;32.63;;
9657;SDS011;4867;48.112;11.622;2022-12-17T13:59:34;38.93;;;31.33;;
9657;SDS011;4867;48.112;11.622;2022-12-17T14:02:04;38.33;;;29.90;;
9657;SDS011;4867;48.112;11.622;2022-12-17T14:04:32;37.90;;;30.23;;
9657;SDS011;4867;48.112;11.622;2022-12-17T14:07:02;52.67;;;41.20;;
9657;SDS011;4867;48.112;11.622;2022-12-17T14:09:32;39.17;;;31.30;;
9657;SDS011;4867;48.112;11.622;2022-12-17T14:12:03;38.27;;;30.83;;
9657;SDS011;4867;48.112;11.622;2022-12-17T14:20:02;37.07;;;29.77;;
9657;SDS011;4867;48.112;11.622;2022-12-17T14:22:34;39.10;;;32.00;;
9657;SDS011;4867;48.112;11.622;2022-12-17T14:25:23;37.80;;;31.70;;
9657;SDS011;4867;48.112;11.622;2022-12-17T14:27:58;38.90;;;31.37;;
9657;SDS011;4867;48.112;11.622;2022-12-17T14:30:37;38.83;;;31.13;;
9657;SDS011;4867;48.112;11.622;2022-12-17T14:33:29;42.13;;;32.23;;
9657;SDS011;4867;48.112;11.622;2022-12-17T14:36:02;39.17;;;32.80;;
9657;SDS011;4867;48.112;11.622;2022-12-17T14:38:32;40.43;;;32.40;;
9657;SDS011;4867;48.112;11.622;2022-12-17T14:41:14;42.63;;;32.90;;
9657;SDS011;4867;48.112;11.622;2022-12-17T14:44:00;38.07;;;31.47;;
9657;SDS011;4867;48.112;11.622;2022-12-17T14:46:29;41.23;;;33.90;;
9657;SDS011;4867;48.112;11.622;2022-12-17T14:48:58;44.17;;;35.40;;
9657;SDS011;4867;48.112;11.622;2022-12-17T14:51:31;40.50;;;33.23;;
9657;SDS011;4867;48.112;11.622;2022-12-17T14:56:52;47.50;;;38.50;;
9657;SDS011;4867;48.112;11.622;2022-12-17T14:59:25;48.50;;;40.47;;
9657;SDS011;4867;48.112;11.622;2022-12-17T15:02:22;52.90;;;40.17;;
9657;SDS011;4867;48.112;11.622;2022-12-17T15:04:57;52.90;;;41.40;;
9657;SDS011;4867;48.112;11.622;2022-12-17T15:07:28;46.80;;;37.07;;
9657;SDS011;4867;48.112;11.622;2022-12-17T15:10:07;47.83;;;37.80;;
9657;SDS011;4867;48.112;11.622;2022-12-17T15:12:36;50.67;;;39.17;;
9657;SDS011;4867;48.112;11.622;2022-12-17T15:15:03;52.60;;;41.87;;
9657;SDS011;4867;48.112;11.622;2022-12-17T15:17:31;48.03;;;37.27;;
9657;SDS011;4867;48.112;11.622;2022-12-17T15:19:58;48.83;;;38.80;;
9657;SDS011;4867;48.112;11.622;2022-12-17T15:22:25;48.60;;;38.83;;
9657;SDS011;4867;48.112;11.622;2022-12-17T15:24:53;50.20;;;39.53;;
9657;SDS011;4867;48.112;11.622;2022-12-17T15:27:20;53.27;;;40.20;;
9657;SDS011;4867;48.112;11.622;2022-12-17T15:29:47;59.57;;;43.97;;
9657;SDS011;4867;48.112;11.622;2022-12-17T15:32:18;55.03;;;41.97;;
9657;SDS011;4867;48.112;11.622;2022-12-17T15:34:47;59.00;;;43.73;;
9657;SDS011;4867;48.112;11.622;2022-12-17T15:37:16;59.70;;;44.00;;
9657;SDS011;4867;48.112;11.622;2022-12-17T15:39:49;58.57;;;46.37;;
9657;SDS011;4867;48.112;11.622;2022-12-17T15:42:17;64.03;;;48.70;;
9657;SDS011;4867;48.112;11.622;2022-12-17T15:45:02;64.60;;;49.40;;
9657;SDS011;4867;48.112;11.622;2022-12-17T15:47:30;66.23;;;49.10;;
9657;SDS011;4867;48.112;11.622;2022-12-17T15:49:57;64.73;;;49.03;;
9657;SDS011;4867;48.112;11.622;2022-12-17T15:52:24;67.30;;;47.63;;
9657;SDS011;4867;48.112;11.622;2022-12-17T15:54:51;62.10;;;48.03;;
9657;SDS011;4867;48.112;11.622;2022-12-17T15:57:19;57.97;;;44.53;;
9657;SDS011;4867;48.112;11.622;2022-12-17T15:59:46;58.93;;;45.33;;
9657;SDS011;4867;48.112;11.622;2022-12-17T16:02:14;59.47;;;45.53;;
9657;SDS011;4867;48.112;11.622;2022-12-17T16:04:41;60.50;;;45.83;;
9657;SDS011;4867;48.112;11.622;2022-12-17T16:07:08;61.00;;;48.23;;
9657;SDS011;4867;48.112;11.622;2022-12-17T16:09:36;63.53;;;48.43;;
9657;SDS011;4867;48.112;11.622;2022-12-17T16:12:03;63.47;;;49.47;;
9657;SDS011;4867;48.112;11.622;2022-12-17T16:14:30;67.27;;;50.23;;
9657;SDS011;4867;48.112;11.622;2022-12-17T16:16:57;59.10;;;46.37;;
9657;SDS011;4867;48.112;11.622;2022-12-17T16:19:25;63.00;;;49.93;;
9657;SDS011;4867;48.112;11.622;2022-12-17T16:21:52;54.37;;;39.40;;
9657;SDS011;4867;48.112;11.622;2022-12-17T16:24:20;54.03;;;40.10;;
9657;SDS011;4867;48.112;11.622;2022-12-17T16:26:47;50.40;;;40.13;;
9657;SDS011;4867;48.112;11.622;2022-12-17T16:29:14;49.80;;;39.33;;
9657;SDS011;4867;48.112;11.622;2022-12-17T16:31:45;45.17;;;33.73;;
9657;SDS011;4867;48.112;11.622;2022-12-17T16:34:22;49.10;;;36.07;;
9657;SDS011;4867;48.112;11.622;2022-12-17T16:36:49;46.37;;;36.10;;
9657;SDS011;4867;48.112;11.622;2022-12-17T16:39:17;44.07;;;33.93;;
9657;SDS011;4867;48.112;11.622;2022-12-17T16:41:45;45.87;;;36.20;;
9657;SDS011;4867;48.112;11.622;2022-12-17T16:44:12;42.80;;;34.27;;
9657;SDS011;4867;48.112;11.622;2022-12-17T16:46:40;39.87;;;33.20;;
9657;SDS011;4867;48.112;11.622;2022-12-17T16:49:14;47.63;;;32.00;;
9657;SDS011;4867;48.112;11.622;2022-12-17T16:51:47;43.80;;;31.97;;
9657;SDS011;4867;48.112;11.622;2022-12-17T16:54:19;42.50;;;32.47;;
9657;SDS011;4867;48.112;11.622;2022-12-17T16:56:47;42.90;;;32.63;;
9657;SDS011;4867;48.112;11.622;2022-12-17T16:59:15;41.40;;;32.10;;
9657;SDS011;4867;48.112;11.622;2022-12-17T17:01:45;47.90;;;36.70;;
9657;SDS011;4867;48.112;11.622;2022-12-17T17:04:15;36.83;;;28.57;;
9657;SDS011;4867;48.112;11.622;2022-12-17T17:06:46;38.50;;;29.10;;
9657;SDS011;4867;48.112;11.622;2022-12-17T17:09:15;39.37;;;29.43;;
9657;SDS011;4867;48.112;11.622;2022-12-17T17:11:44;38.57;;;29.93;;
9657;SDS011;4867;48.112;11.622;2022-12-17T17:14:18;36.67;;;27.80;;
9657;SDS011;4867;48.112;11.622;2022-12-17T17:16:45;36.27;;;27.93;;
9657;SDS011;4867;48.112;11.622;2022-12-17T17:19:12;39.13;;;29.03;;
9657;SDS011;4867;48.112;11.622;2022-12-17T17:21:41;35.67;;;28.83;;
9657;SDS011;4867;48.112;11.622;2022-12-17T17:24:14;43.20;;;31.90;;
9657;SDS011;4867;48.112;11.622;2022-12-17T17:26:47;45.87;;;34.40;;
9657;SDS011;4867;48.112;11.622;2022-12-17T17:29:15;41.00;;;31.63;;
9657;SDS011;4867;48.112;11.622;2022-12-17T17:31:43;41.33;;;31.30;;
9657;SDS011;4867;48.112;11.622;2022-12-17T17:34:31;45.07;;;34.27;;
9657;SDS011;4867;48.112;11.622;2022-12-17T17:36:58;43.83;;;34.03;;